sensor_id;sensor_type;location;lat;lon;timestamp;temperature;humidity
11532;DHT22;5822;51.000;5.874;2022-12-16T00:00:22;-0.10;99.90
11532;DHT22;5822;51.000;5.874;2022-12-16T00:02:49;0.10;99.90
11532;DHT22;5822;51.000;5.874;2022-12-16T00:05:15;0.10;99.90
11532;DHT22;5822;51.000;5.874;2022-12-16T00:07:41;0.30;99.90
11532;DHT22;5822;51.000;5.874;2022-12-16T00:10:07;0.00;99.90
11532;DHT22;5822;51.000;5.874;2022-12-16T00:12:33;-0.20;99.90
11532;DHT22;5822;51.000;5.874;2022-12-16T00:14:59;-0.20;99.90
11532;DHT22;5822;51.000;5.874;2022-12-16T00:17:24;-0.20;99.90
11532;DHT22;5822;51.000;5.874;2022-12-16T00:19:50;-0.30;99.90
11532;DHT22;5822;51.000;5.874;2022-12-16T00:22:16;-0.50;99.90
11532;DHT22;5822;51.000;5.874;2022-12-16T00:24:41;-0.50;99.90
11532;DHT22;5822;51.000;5.874;2022-12-16T00:27:07;-0.50;99.90
11532;DHT22;5822;51.000;5.874;2022-12-16T00:29:33;-0.30;99.90
11532;DHT22;5822;51.000;5.874;2022-12-16T00:31:59;-0.30;99.90
11532;DHT22;5822;51.000;5.874;2022-12-16T00:34:24;-0.50;99.90
11532;DHT22;5822;51.000;5.874;2022-12-16T00:36:50;-0.40;99.90
11532;DHT22;5822;51.000;5.874;2022-12-16T00:39:16;-0.40;99.90
11532;DHT22;5822;51.000;5.874;2022-12-16T00:41:42;-0.50;99.90
11532;DHT22;5822;51.000;5.874;2022-12-16T00:44:08;-0.50;99.90
11532;DHT22;5822;51.000;5.874;2022-12-16T00:46:33;-0.60;99.90
11532;DHT22;5822;51.000;5.874;2022-12-16T00:48:59;-0.70;99.90
11532;DHT22;5822;51.000;5.874;2022-12-16T00:51:24;-0.70;99.90
11532;DHT22;5822;51.000;5.874;2022-12-16T00:53:50;-0.60;99.90
11532;DHT22;5822;51.000;5.874;2022-12-16T00:56:16;-0.60;99.90
11532;DHT22;5822;51.000;5.874;2022-12-16T00:58:45;-0.70;99.90
11532;DHT22;5822;51.000;5.874;2022-12-16T01:01:11;-0.60;99.90
11532;DHT22;5822;51.000;5.874;2022-12-16T01:03:37;-0.70;99.90
11532;DHT22;5822;51.000;5.874;2022-12-16T01:06:11;-0.70;99.90
11532;DHT22;5822;51.000;5.874;2022-12-16T01:08:37;-0.80;99.90
11532;DHT22;5822;51.000;5.874;2022-12-16T01:11:03;-0.80;99.90
11532;DHT22;5822;51.000;5.874;2022-12-16T01:13:29;-0.70;99.90
11532;DHT22;5822;51.000;5.874;2022-12-16T01:15:57;-0.50;99.90
11532;DHT22;5822;51.000;5.874;2022-12-16T01:18:23;-0.30;99.90
11532;DHT22;5822;51.000;5.874;2022-12-16T01:20:49;-0.20;99.90
11532;DHT22;5822;51.000;5.874;2022-12-16T01:23:14;-0.20;99.90
11532;DHT22;5822;51.000;5.874;2022-12-16T01:25:40;-0.50;99.90
11532;DHT22;5822;51.000;5.874;2022-12-16T01:28:05;-0.60;99.90
11532;DHT22;5822;51.000;5.874;2022-12-16T01:30:31;-0.60;99.90
11532;DHT22;5822;51.000;5.874;2022-12-16T01:32:57;-0.50;99.90
11532;DHT22;5822;51.000;5.874;2022-12-16T01:35:22;-0.60;99.90
11532;DHT22;5822;51.000;5.874;2022-12-16T01:37:48;-0.60;99.90
11532;DHT22;5822;51.000;5.874;2022-12-16T01:40:17;-0.60;99.90
11532;DHT22;5822;51.000;5.874;2022-12-16T01:42:44;-0.60;99.90
11532;DHT22;5822;51.000;5.874;2022-12-16T01:45:29;-0.60;99.90
11532;DHT22;5822;51.000;5.874;2022-12-16T01:47:58;-0.50;99.90
11532;DHT22;5822;51.000;5.874;2022-12-16T01:50:25;-0.20;99.90
11532;DHT22;5822;51.000;5.874;2022-12-16T01:52:56;-0.10;99.90
11532;DHT22;5822;51.000;5.874;2022-12-16T01:55:28;0.00;99.90
11532;DHT22;5822;51.000;5.874;2022-12-16T01:58:03;-0.10;99.90
11532;DHT22;5822;51.000;5.874;2022-12-16T02:00:30;-0.50;99.90
11532;DHT22;5822;51.000;5.874;2022-12-16T02:02:56;-0.60;99.90
11532;DHT22;5822;51.000;5.874;2022-12-16T02:05:22;-0.60;99.90
11532;DHT22;5822;51.000;5.874;2022-12-16T02:08:11;-0.60;99.90
11532;DHT22;5822;51.000;5.874;2022-12-16T02:21:55;-0.60;99.90
11532;DHT22;5822;51.000;5.874;2022-12-16T02:40:54;-0.20;99.90
11532;DHT22;5822;51.000;5.874;2022-12-16T02:45:58;-0.50;99.90
11532;DHT22;5822;51.000;5.874;2022-12-16T02:48:24;-0.40;99.90
11532;DHT22;5822;51.000;5.874;2022-12-16T02:50:51;-0.40;99.90
11532;DHT22;5822;51.000;5.874;2022-12-16T02:53:18;-0.50;99.90
11532;DHT22;5822;51.000;5.874;2022-12-16T03:01:37;-0.60;99.90
11532;DHT22;5822;51.000;5.874;2022-12-16T03:04:19;-0.50;99.90
11532;DHT22;5822;51.000;5.874;2022-12-16T03:06:48;-0.30;99.90
11532;DHT22;5822;51.000;5.874;2022-12-16T03:09:20;-0.20;99.90
11532;DHT22;5822;51.000;5.874;2022-12-16T03:11:49;-0.20;99.90
11532;DHT22;5822;51.000;5.874;2022-12-16T03:14:18;-0.30;99.90
11532;DHT22;5822;51.000;5.874;2022-12-16T03:16:45;-0.30;99.90
11532;DHT22;5822;51.000;5.874;2022-12-16T03:19:12;-0.30;99.90
11532;DHT22;5822;51.000;5.874;2022-12-16T03:21:45;-0.30;99.90
11532;DHT22;5822;51.000;5.874;2022-12-16T03:24:13;-0.30;99.90
11532;DHT22;5822;51.000;5.874;2022-12-16T03:26:50;-0.30;99.90
11532;DHT22;5822;51.000;5.874;2022-12-16T03:30:12;-0.30;99.90
11532;DHT22;5822;51.000;5.874;2022-12-16T03:32:22;-0.40;99.90
11532;DHT22;5822;51.000;5.874;2022-12-16T03:34:54;-0.30;99.90
11532;DHT22;5822;51.000;5.874;2022-12-16T03:37:24;-0.30;99.90
11532;DHT22;5822;51.000;5.874;2022-12-16T03:39:55;0.00;99.90
11532;DHT22;5822;51.000;5.874;2022-12-16T03:42:23;0.20;99.90
11532;DHT22;5822;51.000;5.874;2022-12-16T03:44:49;0.30;99.90
11532;DHT22;5822;51.000;5.874;2022-12-16T03:47:15;0.30;99.90
11532;DHT22;5822;51.000;5.874;2022-12-16T03:49:41;0.30;99.90
11532;DHT22;5822;51.000;5.874;2022-12-16T03:52:06;0.40;99.90
11532;DHT22;5822;51.000;5.874;2022-12-16T03:54:32;0.30;99.90
11532;DHT22;5822;51.000;5.874;2022-12-16T03:56:58;0.10;99.90
11532;DHT22;5822;51.000;5.874;2022-12-16T03:59:23;0.00;99.90
11532;DHT22;5822;51.000;5.874;2022-12-16T04:01:50;-0.10;99.90
11532;DHT22;5822;51.000;5.874;2022-12-16T04:04:16;-0.10;99.90
11532;DHT22;5822;51.000;5.874;2022-12-16T04:06:42;-0.10;99.90
11532;DHT22;5822;51.000;5.874;2022-12-16T04:09:08;0.10;99.90
11532;DHT22;5822;51.000;5.874;2022-12-16T04:11:33;0.30;99.90
11532;DHT22;5822;51.000;5.874;2022-12-16T04:14:17;0.30;99.90
11532;DHT22;5822;51.000;5.874;2022-12-16T04:17:02;0.30;99.90
11532;DHT22;5822;51.000;5.874;2022-12-16T04:19:46;-0.10;99.90
11532;DHT22;5822;51.000;5.874;2022-12-16T04:22:31;-0.30;99.90
11532;DHT22;5822;51.000;5.874;2022-12-16T04:25:28;-0.10;99.90
11532;DHT22;5822;51.000;5.874;2022-12-16T04:27:55;0.00;99.90
11532;DHT22;5822;51.000;5.874;2022-12-16T04:30:24;0.20;99.90
11532;DHT22;5822;51.000;5.874;2022-12-16T04:32:53;0.30;99.90
11532;DHT22;5822;51.000;5.874;2022-12-16T04:35:38;0.10;99.90
11532;DHT22;5822;51.000;5.874;2022-12-16T04:38:22;-0.10;99.90
11532;DHT22;5822;51.000;5.874;2022-12-16T04:41:07;-0.20;99.90
11532;DHT22;5822;51.000;5.874;2022-12-16T04:43:52;-0.40;99.90
11532;DHT22;5822;51.000;5.874;2022-12-16T04:46:36;-0.40;99.90
11532;DHT22;5822;51.000;5.874;2022-12-16T04:49:20;-0.40;99.90
11532;DHT22;5822;51.000;5.874;2022-12-16T04:52:08;-0.30;99.90
11532;DHT22;5822;51.000;5.874;2022-12-16T04:54:53;-0.10;99.90
11532;DHT22;5822;51.000;5.874;2022-12-16T04:57:37;0.10;99.90
11532;DHT22;5822;51.000;5.874;2022-12-16T05:00:21;0.10;99.90
11532;DHT22;5822;51.000;5.874;2022-12-16T05:03:05;0.20;99.90
11532;DHT22;5822;51.000;5.874;2022-12-16T05:05:50;0.30;99.90
11532;DHT22;5822;51.000;5.874;2022-12-16T05:08:33;0.30;99.90
11532;DHT22;5822;51.000;5.874;2022-12-16T05:11:18;0.30;99.90
11532;DHT22;5822;51.000;5.874;2022-12-16T05:14:02;0.40;99.90
11532;DHT22;5822;51.000;5.874;2022-12-16T05:16:46;0.40;99.90
11532;DHT22;5822;51.000;5.874;2022-12-16T05:19:30;0.50;99.90
11532;DHT22;5822;51.000;5.874;2022-12-16T05:22:14;0.50;99.90
11532;DHT22;5822;51.000;5.874;2022-12-16T05:24:58;0.60;99.90
11532;DHT22;5822;51.000;5.874;2022-12-16T05:27:42;0.50;99.90
11532;DHT22;5822;51.000;5.874;2022-12-16T05:30:27;0.60;99.90
11532;DHT22;5822;51.000;5.874;2022-12-16T05:33:11;0.60;99.90
11532;DHT22;5822;51.000;5.874;2022-12-16T05:35:55;0.60;99.90
11532;DHT22;5822;51.000;5.874;2022-12-16T05:38:39;0.50;99.90
11532;DHT22;5822;51.000;5.874;2022-12-16T05:41:23;0.50;99.90
11532;DHT22;5822;51.000;5.874;2022-12-16T05:44:07;0.50;99.90
11532;DHT22;5822;51.000;5.874;2022-12-16T05:46:51;0.40;99.90
11532;DHT22;5822;51.000;5.874;2022-12-16T05:49:35;0.40;99.90
11532;DHT22;5822;51.000;5.874;2022-12-16T05:52:20;0.40;99.90
11532;DHT22;5822;51.000;5.874;2022-12-16T05:55:04;0.70;99.90
11532;DHT22;5822;51.000;5.874;2022-12-16T05:57:49;0.90;99.90
11532;DHT22;5822;51.000;5.874;2022-12-16T06:00:34;1.00;99.90
11532;DHT22;5822;51.000;5.874;2022-12-16T06:03:18;1.10;99.90
11532;DHT22;5822;51.000;5.874;2022-12-16T06:06:02;0.90;99.90
11532;DHT22;5822;51.000;5.874;2022-12-16T06:08:46;0.70;99.90
11532;DHT22;5822;51.000;5.874;2022-12-16T06:11:30;0.80;99.90
11532;DHT22;5822;51.000;5.874;2022-12-16T06:14:15;0.70;99.90
11532;DHT22;5822;51.000;5.874;2022-12-16T06:16:59;0.70;99.90
11532;DHT22;5822;51.000;5.874;2022-12-16T06:19:43;0.70;99.90
11532;DHT22;5822;51.000;5.874;2022-12-16T06:22:27;0.80;99.90
11532;DHT22;5822;51.000;5.874;2022-12-16T06:25:11;0.90;99.90
11532;DHT22;5822;51.000;5.874;2022-12-16T06:27:55;1.00;99.90
11532;DHT22;5822;51.000;5.874;2022-12-16T06:30:39;1.00;99.90
11532;DHT22;5822;51.000;5.874;2022-12-16T06:33:23;0.90;99.90
11532;DHT22;5822;51.000;5.874;2022-12-16T06:36:08;1.00;99.90
11532;DHT22;5822;51.000;5.874;2022-12-16T06:38:52;1.00;99.90
11532;DHT22;5822;51.000;5.874;2022-12-16T06:41:36;1.00;99.90
11532;DHT22;5822;51.000;5.874;2022-12-16T06:44:20;1.10;99.90
11532;DHT22;5822;51.000;5.874;2022-12-16T06:47:04;1.20;99.90
11532;DHT22;5822;51.000;5.874;2022-12-16T06:49:48;1.10;99.90
11532;DHT22;5822;51.000;5.874;2022-12-16T06:52:32;1.20;99.90
11532;DHT22;5822;51.000;5.874;2022-12-16T06:55:16;1.20;99.90
11532;DHT22;5822;51.000;5.874;2022-12-16T06:58:00;1.30;99.90
11532;DHT22;5822;51.000;5.874;2022-12-16T07:00:45;1.30;99.90
11532;DHT22;5822;51.000;5.874;2022-12-16T07:03:40;1.40;99.90
11532;DHT22;5822;51.000;5.874;2022-12-16T07:06:24;1.30;99.90
11532;DHT22;5822;51.000;5.874;2022-12-16T07:09:08;1.40;99.90
11532;DHT22;5822;51.000;5.874;2022-12-16T07:11:52;1.30;99.90
11532;DHT22;5822;51.000;5.874;2022-12-16T07:14:37;1.40;99.90
11532;DHT22;5822;51.000;5.874;2022-12-16T07:17:21;1.60;99.90
11532;DHT22;5822;51.000;5.874;2022-12-16T07:20:05;1.70;99.90
11532;DHT22;5822;51.000;5.874;2022-12-16T07:22:49;1.70;99.90
11532;DHT22;5822;51.000;5.874;2022-12-16T07:25:34;1.80;99.90
11532;DHT22;5822;51.000;5.874;2022-12-16T07:28:18;1.90;99.90
11532;DHT22;5822;51.000;5.874;2022-12-16T07:31:02;1.70;99.90
11532;DHT22;5822;51.000;5.874;2022-12-16T07:33:46;1.70;99.90
11532;DHT22;5822;51.000;5.874;2022-12-16T07:36:30;1.70;99.90
11532;DHT22;5822;51.000;5.874;2022-12-16T07:39:14;1.70;99.90
11532;DHT22;5822;51.000;5.874;2022-12-16T07:41:58;1.70;99.90
11532;DHT22;5822;51.000;5.874;2022-12-16T07:44:42;1.80;99.90
11532;DHT22;5822;51.000;5.874;2022-12-16T07:47:26;1.70;99.90
11532;DHT22;5822;51.000;5.874;2022-12-16T07:50:10;1.80;99.90
11532;DHT22;5822;51.000;5.874;2022-12-16T07:52:58;2.10;99.90
11532;DHT22;5822;51.000;5.874;2022-12-16T07:55:43;2.10;99.90
11532;DHT22;5822;51.000;5.874;2022-12-16T07:58:27;2.10;99.90
11532;DHT22;5822;51.000;5.874;2022-12-16T08:01:11;2.20;99.90
11532;DHT22;5822;51.000;5.874;2022-12-16T08:03:55;2.10;99.90
11532;DHT22;5822;51.000;5.874;2022-12-16T08:06:39;2.00;99.90
11532;DHT22;5822;51.000;5.874;2022-12-16T08:09:23;2.00;99.90
11532;DHT22;5822;51.000;5.874;2022-12-16T08:12:07;1.90;99.90
11532;DHT22;5822;51.000;5.874;2022-12-16T08:14:51;1.80;99.90
11532;DHT22;5822;51.000;5.874;2022-12-16T08:17:35;1.70;99.90
11532;DHT22;5822;51.000;5.874;2022-12-16T08:20:19;1.70;99.90
11532;DHT22;5822;51.000;5.874;2022-12-16T08:23:03;1.70;99.90
11532;DHT22;5822;51.000;5.874;2022-12-16T08:25:47;1.80;99.90
11532;DHT22;5822;51.000;5.874;2022-12-16T08:28:32;1.80;99.90
11532;DHT22;5822;51.000;5.874;2022-12-16T08:31:17;1.80;99.90
11532;DHT22;5822;51.000;5.874;2022-12-16T08:34:01;1.80;99.90
11532;DHT22;5822;51.000;5.874;2022-12-16T08:36:45;1.80;99.90
11532;DHT22;5822;51.000;5.874;2022-12-16T08:39:33;1.90;99.90
11532;DHT22;5822;51.000;5.874;2022-12-16T08:42:18;2.00;99.90
11532;DHT22;5822;51.000;5.874;2022-12-16T08:45:01;2.00;99.90
11532;DHT22;5822;51.000;5.874;2022-12-16T08:47:45;1.90;99.90
11532;DHT22;5822;51.000;5.874;2022-12-16T08:50:29;1.90;99.90
11532;DHT22;5822;51.000;5.874;2022-12-16T08:53:13;1.90;99.90
11532;DHT22;5822;51.000;5.874;2022-12-16T08:55:58;1.90;99.90
11532;DHT22;5822;51.000;5.874;2022-12-16T08:58:42;2.10;99.90
11532;DHT22;5822;51.000;5.874;2022-12-16T09:01:26;2.30;99.90
11532;DHT22;5822;51.000;5.874;2022-12-16T09:04:10;2.40;99.90
11532;DHT22;5822;51.000;5.874;2022-12-16T09:06:54;2.40;99.90
11532;DHT22;5822;51.000;5.874;2022-12-16T09:09:38;2.30;99.90
11532;DHT22;5822;51.000;5.874;2022-12-16T09:12:22;2.30;99.90
11532;DHT22;5822;51.000;5.874;2022-12-16T09:15:26;2.50;99.90
11532;DHT22;5822;51.000;5.874;2022-12-16T09:18:10;2.30;99.90
11532;DHT22;5822;51.000;5.874;2022-12-16T09:20:55;2.30;99.90
11532;DHT22;5822;51.000;5.874;2022-12-16T09:23:39;2.40;99.90
11532;DHT22;5822;51.000;5.874;2022-12-16T09:26:23;2.60;99.90
11532;DHT22;5822;51.000;5.874;2022-12-16T09:29:07;2.70;99.90
11532;DHT22;5822;51.000;5.874;2022-12-16T09:31:51;2.70;99.90
11532;DHT22;5822;51.000;5.874;2022-12-16T09:34:35;2.70;99.90
11532;DHT22;5822;51.000;5.874;2022-12-16T09:37:36;2.80;99.90
11532;DHT22;5822;51.000;5.874;2022-12-16T09:40:20;2.60;99.90
11532;DHT22;5822;51.000;5.874;2022-12-16T09:43:17;2.50;99.90
11532;DHT22;5822;51.000;5.874;2022-12-16T09:46:18;2.60;99.90
11532;DHT22;5822;51.000;5.874;2022-12-16T09:52:32;2.50;99.90
11532;DHT22;5822;51.000;5.874;2022-12-16T09:55:35;2.60;99.90
11532;DHT22;5822;51.000;5.874;2022-12-16T09:58:22;2.70;99.90
11532;DHT22;5822;51.000;5.874;2022-12-16T10:01:11;2.60;99.90
11532;DHT22;5822;51.000;5.874;2022-12-16T10:03:55;2.60;99.90
11532;DHT22;5822;51.000;5.874;2022-12-16T10:06:50;2.60;99.90
11532;DHT22;5822;51.000;5.874;2022-12-16T10:12:31;2.50;99.90
11532;DHT22;5822;51.000;5.874;2022-12-16T10:18:57;2.70;99.90
11532;DHT22;5822;51.000;5.874;2022-12-16T10:21:54;2.80;99.90
11532;DHT22;5822;51.000;5.874;2022-12-16T10:25:13;2.80;99.90
11532;DHT22;5822;51.000;5.874;2022-12-16T10:28:47;2.80;99.90
11532;DHT22;5822;51.000;5.874;2022-12-16T10:31:32;2.90;99.90
11532;DHT22;5822;51.000;5.874;2022-12-16T10:34:26;2.90;99.90
11532;DHT22;5822;51.000;5.874;2022-12-16T10:37:19;2.90;99.90
11532;DHT22;5822;51.000;5.874;2022-12-16T10:40:05;3.10;99.90
11532;DHT22;5822;51.000;5.874;2022-12-16T10:43:00;3.10;99.90
11532;DHT22;5822;51.000;5.874;2022-12-16T10:45:49;2.90;99.90
11532;DHT22;5822;51.000;5.874;2022-12-16T10:48:34;2.90;99.90
11532;DHT22;5822;51.000;5.874;2022-12-16T10:51:21;2.90;99.90
11532;DHT22;5822;51.000;5.874;2022-12-16T10:57:26;2.80;99.90
11532;DHT22;5822;51.000;5.874;2022-12-16T11:00:20;2.90;99.90
11532;DHT22;5822;51.000;5.874;2022-12-16T11:03:31;3.10;99.90
11532;DHT22;5822;51.000;5.874;2022-12-16T11:06:27;3.20;99.90
11532;DHT22;5822;51.000;5.874;2022-12-16T11:09:28;3.30;99.90
11532;DHT22;5822;51.000;5.874;2022-12-16T11:15:22;3.40;99.90
11532;DHT22;5822;51.000;5.874;2022-12-16T11:18:15;3.40;99.90
11532;DHT22;5822;51.000;5.874;2022-12-16T11:21:19;3.40;99.90
11532;DHT22;5822;51.000;5.874;2022-12-16T11:24:11;3.40;99.90
11532;DHT22;5822;51.000;5.874;2022-12-16T11:26:58;3.40;99.90
11532;DHT22;5822;51.000;5.874;2022-12-16T11:30:01;3.40;99.90
11532;DHT22;5822;51.000;5.874;2022-12-16T11:32:52;3.30;99.90
11532;DHT22;5822;51.000;5.874;2022-12-16T11:35:41;3.50;99.90
11532;DHT22;5822;51.000;5.874;2022-12-16T11:38:40;3.50;99.90
11532;DHT22;5822;51.000;5.874;2022-12-16T11:41:38;3.30;99.90
11532;DHT22;5822;51.000;5.874;2022-12-16T11:44:34;3.30;99.90
11532;DHT22;5822;51.000;5.874;2022-12-16T11:47:35;3.30;99.90
11532;DHT22;5822;51.000;5.874;2022-12-16T11:50:22;3.30;99.90
11532;DHT22;5822;51.000;5.874;2022-12-16T11:56:04;3.20;99.90
11532;DHT22;5822;51.000;5.874;2022-12-16T11:58:52;3.10;99.90
11532;DHT22;5822;51.000;5.874;2022-12-16T12:01:45;3.20;99.90
11532;DHT22;5822;51.000;5.874;2022-12-16T12:04:32;3.30;99.90
11532;DHT22;5822;51.000;5.874;2022-12-16T12:10:31;3.40;99.90
11532;DHT22;5822;51.000;5.874;2022-12-16T12:16:43;3.20;99.90
11532;DHT22;5822;51.000;5.874;2022-12-16T12:22:41;3.30;99.90
11532;DHT22;5822;51.000;5.874;2022-12-16T12:25:45;3.40;99.90
11532;DHT22;5822;51.000;5.874;2022-12-16T12:28:55;3.50;99.90
11532;DHT22;5822;51.000;5.874;2022-12-16T12:31:54;3.50;99.90
11532;DHT22;5822;51.000;5.874;2022-12-16T12:40:46;3.70;99.90
11532;DHT22;5822;51.000;5.874;2022-12-16T12:43:56;3.60;99.90
11532;DHT22;5822;51.000;5.874;2022-12-16T12:46:48;3.50;99.90
11532;DHT22;5822;51.000;5.874;2022-12-16T12:58:53;3.60;99.90
11532;DHT22;5822;51.000;5.874;2022-12-16T13:01:41;3.70;99.90
11532;DHT22;5822;51.000;5.874;2022-12-16T13:04:27;3.80;99.90
11532;DHT22;5822;51.000;5.874;2022-12-16T13:07:17;3.80;99.90
11532;DHT22;5822;51.000;5.874;2022-12-16T13:10:34;3.90;99.90
11532;DHT22;5822;51.000;5.874;2022-12-16T13:16:02;4.00;99.90
11532;DHT22;5822;51.000;5.874;2022-12-16T13:18:47;3.90;99.90
11532;DHT22;5822;51.000;5.874;2022-12-16T13:24:36;3.90;99.90
11532;DHT22;5822;51.000;5.874;2022-12-16T13:27:21;3.80;99.90
11532;DHT22;5822;51.000;5.874;2022-12-16T13:32:55;3.90;99.90
11532;DHT22;5822;51.000;5.874;2022-12-16T13:36:07;3.90;99.90
11532;DHT22;5822;51.000;5.874;2022-12-16T13:38:54;3.90;99.90
11532;DHT22;5822;51.000;5.874;2022-12-16T13:53:19;3.70;99.90
11532;DHT22;5822;51.000;5.874;2022-12-16T13:56:05;3.80;99.90
11532;DHT22;5822;51.000;5.874;2022-12-16T13:58:52;3.80;99.90
11532;DHT22;5822;51.000;5.874;2022-12-16T14:01:56;3.80;99.90
11532;DHT22;5822;51.000;5.874;2022-12-16T14:04:52;3.80;99.90
11532;DHT22;5822;51.000;5.874;2022-12-16T14:07:38;3.80;99.90
11532;DHT22;5822;51.000;5.874;2022-12-16T14:10:27;3.80;99.90
11532;DHT22;5822;51.000;5.874;2022-12-16T14:13:39;3.80;99.90
11532;DHT22;5822;51.000;5.874;2022-12-16T14:16:52;3.80;99.90
11532;DHT22;5822;51.000;5.874;2022-12-16T14:20:14;3.80;99.90
11532;DHT22;5822;51.000;5.874;2022-12-16T14:25:59;3.70;99.90
11532;DHT22;5822;51.000;5.874;2022-12-16T14:28:46;3.60;99.90
11532;DHT22;5822;51.000;5.874;2022-12-16T14:31:39;3.20;99.90
11532;DHT22;5822;51.000;5.874;2022-12-16T14:34:25;3.20;99.90
11532;DHT22;5822;51.000;5.874;2022-12-16T14:37:33;3.20;99.90
11532;DHT22;5822;51.000;5.874;2022-12-16T14:40:28;3.30;99.90
11532;DHT22;5822;51.000;5.874;2022-12-16T14:43:24;3.40;99.90
11532;DHT22;5822;51.000;5.874;2022-12-16T14:46:30;3.60;99.90
11532;DHT22;5822;51.000;5.874;2022-12-16T14:49:27;3.50;99.90
11532;DHT22;5822;51.000;5.874;2022-12-16T14:52:25;3.60;99.90
11532;DHT22;5822;51.000;5.874;2022-12-16T14:55:16;3.50;99.90
11532;DHT22;5822;51.000;5.874;2022-12-16T14:58:25;3.60;99.90
11532;DHT22;5822;51.000;5.874;2022-12-16T15:01:21;3.50;99.90
11532;DHT22;5822;51.000;5.874;2022-12-16T15:04:21;3.70;99.90
11532;DHT22;5822;51.000;5.874;2022-12-16T15:07:07;3.70;99.90
11532;DHT22;5822;51.000;5.874;2022-12-16T15:09:56;3.70;99.90
11532;DHT22;5822;51.000;5.874;2022-12-16T15:12:43;3.70;99.90
11532;DHT22;5822;51.000;5.874;2022-12-16T15:15:34;3.70;99.90
11532;DHT22;5822;51.000;5.874;2022-12-16T15:18:31;3.70;99.90
11532;DHT22;5822;51.000;5.874;2022-12-16T15:21:16;3.50;99.90
11532;DHT22;5822;51.000;5.874;2022-12-16T15:24:00;3.60;99.90
11532;DHT22;5822;51.000;5.874;2022-12-16T15:26:44;3.50;99.90
11532;DHT22;5822;51.000;5.874;2022-12-16T15:29:33;3.50;99.90
11532;DHT22;5822;51.000;5.874;2022-12-16T15:35:08;3.70;99.90
11532;DHT22;5822;51.000;5.874;2022-12-16T15:37:52;3.70;99.90
11532;DHT22;5822;51.000;5.874;2022-12-16T15:40:39;3.50;99.90
11532;DHT22;5822;51.000;5.874;2022-12-16T15:43:29;3.60;99.90
11532;DHT22;5822;51.000;5.874;2022-12-16T15:46:25;3.70;99.90
11532;DHT22;5822;51.000;5.874;2022-12-16T15:52:00;3.60;99.90
11532;DHT22;5822;51.000;5.874;2022-12-16T15:54:52;3.70;99.90
11532;DHT22;5822;51.000;5.874;2022-12-16T15:57:37;3.80;99.90
11532;DHT22;5822;51.000;5.874;2022-12-16T16:00:27;3.80;99.90
11532;DHT22;5822;51.000;5.874;2022-12-16T16:03:32;3.80;99.90
11532;DHT22;5822;51.000;5.874;2022-12-16T16:06:22;3.80;99.90
11532;DHT22;5822;51.000;5.874;2022-12-16T16:09:14;3.70;99.90
11532;DHT22;5822;51.000;5.874;2022-12-16T16:11:59;3.70;99.90
11532;DHT22;5822;51.000;5.874;2022-12-16T16:14:43;3.70;99.90
11532;DHT22;5822;51.000;5.874;2022-12-16T16:17:28;3.60;99.90
11532;DHT22;5822;51.000;5.874;2022-12-16T16:20:14;3.70;99.90
11532;DHT22;5822;51.000;5.874;2022-12-16T16:22:59;3.60;99.90
11532;DHT22;5822;51.000;5.874;2022-12-16T16:25:45;3.60;99.90
11532;DHT22;5822;51.000;5.874;2022-12-16T16:28:29;3.70;99.90
11532;DHT22;5822;51.000;5.874;2022-12-16T16:31:14;3.70;99.90
11532;DHT22;5822;51.000;5.874;2022-12-16T16:33:58;3.80;99.90
11532;DHT22;5822;51.000;5.874;2022-12-16T16:36:42;3.90;99.90
11532;DHT22;5822;51.000;5.874;2022-12-16T16:39:26;3.80;99.90
11532;DHT22;5822;51.000;5.874;2022-12-16T16:42:10;3.70;99.90
11532;DHT22;5822;51.000;5.874;2022-12-16T16:44:54;3.60;99.90
11532;DHT22;5822;51.000;5.874;2022-12-16T16:47:38;3.60;99.90
11532;DHT22;5822;51.000;5.874;2022-12-16T16:50:22;3.60;99.90
11532;DHT22;5822;51.000;5.874;2022-12-16T16:53:14;3.70;99.90
11532;DHT22;5822;51.000;5.874;2022-12-16T16:55:59;3.80;99.90
11532;DHT22;5822;51.000;5.874;2022-12-16T16:58:43;3.70;99.90
11532;DHT22;5822;51.000;5.874;2022-12-16T17:01:28;3.70;99.90
11532;DHT22;5822;51.000;5.874;2022-12-16T17:04:12;3.70;99.90
11532;DHT22;5822;51.000;5.874;2022-12-16T17:06:55;3.70;99.90
11532;DHT22;5822;51.000;5.874;2022-12-16T17:09:40;3.70;99.90
11532;DHT22;5822;51.000;5.874;2022-12-16T17:12:27;3.70;99.90
11532;DHT22;5822;51.000;5.874;2022-12-16T17:15:24;3.70;99.90
11532;DHT22;5822;51.000;5.874;2022-12-16T17:18:09;3.70;99.90
11532;DHT22;5822;51.000;5.874;2022-12-16T17:20:54;3.60;99.90
11532;DHT22;5822;51.000;5.874;2022-12-16T17:23:39;3.60;99.90
11532;DHT22;5822;51.000;5.874;2022-12-16T17:26:24;3.70;99.90
11532;DHT22;5822;51.000;5.874;2022-12-16T17:29:17;3.60;99.90
11532;DHT22;5822;51.000;5.874;2022-12-16T17:32:01;3.70;99.90
11532;DHT22;5822;51.000;5.874;2022-12-16T17:34:45;3.90;99.90
11532;DHT22;5822;51.000;5.874;2022-12-16T17:37:29;3.80;99.90
11532;DHT22;5822;51.000;5.874;2022-12-16T17:40:13;3.70;99.90
11532;DHT22;5822;51.000;5.874;2022-12-16T17:42:57;3.60;99.90
11532;DHT22;5822;51.000;5.874;2022-12-16T17:45:42;3.60;99.90
11532;DHT22;5822;51.000;5.874;2022-12-16T17:48:26;3.60;99.90
11532;DHT22;5822;51.000;5.874;2022-12-16T17:51:10;3.50;99.90
11532;DHT22;5822;51.000;5.874;2022-12-16T17:53:54;3.50;99.90
11532;DHT22;5822;51.000;5.874;2022-12-16T17:56:38;3.50;99.90
11532;DHT22;5822;51.000;5.874;2022-12-16T17:59:22;3.50;99.90
11532;DHT22;5822;51.000;5.874;2022-12-16T18:02:10;3.40;99.90
11532;DHT22;5822;51.000;5.874;2022-12-16T18:04:55;3.40;99.90
11532;DHT22;5822;51.000;5.874;2022-12-16T18:07:39;3.40;99.90
11532;DHT22;5822;51.000;5.874;2022-12-16T18:10:31;3.40;99.90
11532;DHT22;5822;51.000;5.874;2022-12-16T18:13:15;3.40;99.90
11532;DHT22;5822;51.000;5.874;2022-12-16T18:15:59;3.40;99.90
11532;DHT22;5822;51.000;5.874;2022-12-16T18:18:48;3.50;99.90
11532;DHT22;5822;51.000;5.874;2022-12-16T18:21:32;3.50;99.90
11532;DHT22;5822;51.000;5.874;2022-12-16T18:24:16;3.50;99.90
11532;DHT22;5822;51.000;5.874;2022-12-16T18:27:00;3.50;99.90
11532;DHT22;5822;51.000;5.874;2022-12-16T18:29:44;3.50;99.90
11532;DHT22;5822;51.000;5.874;2022-12-16T18:32:28;3.40;99.90
11532;DHT22;5822;51.000;5.874;2022-12-16T18:35:13;3.50;99.90
11532;DHT22;5822;51.000;5.874;2022-12-16T18:37:57;3.50;99.90
11532;DHT22;5822;51.000;5.874;2022-12-16T18:40:41;3.50;99.90
11532;DHT22;5822;51.000;5.874;2022-12-16T18:43:25;3.40;99.90
11532;DHT22;5822;51.000;5.874;2022-12-16T18:46:09;3.50;99.90
11532;DHT22;5822;51.000;5.874;2022-12-16T18:48:53;3.40;99.90
11532;DHT22;5822;51.000;5.874;2022-12-16T18:51:37;3.50;99.90
11532;DHT22;5822;51.000;5.874;2022-12-16T18:54:21;3.50;99.90
11532;DHT22;5822;51.000;5.874;2022-12-16T18:57:05;3.40;99.90
11532;DHT22;5822;51.000;5.874;2022-12-16T18:59:49;3.40;99.90
11532;DHT22;5822;51.000;5.874;2022-12-16T19:02:33;3.40;99.90
11532;DHT22;5822;51.000;5.874;2022-12-16T19:05:17;3.40;99.90
11532;DHT22;5822;51.000;5.874;2022-12-16T19:08:01;3.40;99.90
11532;DHT22;5822;51.000;5.874;2022-12-16T19:10:55;3.50;99.90
11532;DHT22;5822;51.000;5.874;2022-12-16T19:13:40;3.40;99.90
11532;DHT22;5822;51.000;5.874;2022-12-16T19:16:24;3.40;99.90
11532;DHT22;5822;51.000;5.874;2022-12-16T19:19:08;3.40;99.90
11532;DHT22;5822;51.000;5.874;2022-12-16T19:21:52;3.40;99.90
11532;DHT22;5822;51.000;5.874;2022-12-16T19:24:36;3.30;99.90
11532;DHT22;5822;51.000;5.874;2022-12-16T19:27:20;3.30;99.90
11532;DHT22;5822;51.000;5.874;2022-12-16T19:30:05;3.30;99.90